createdAt,value
2019-05-28T00:01:14.699Z,17.00
2019-05-28T00:03:43.901Z,17.02
2019-05-28T00:06:13.099Z,16.87
2019-05-28T00:08:42.324Z,16.74
2019-05-28T00:11:11.541Z,16.45
2019-05-28T00:13:40.787Z,16.64
2019-05-28T00:16:10.321Z,16.02
2019-05-28T00:18:39.544Z,15.66
2019-05-28T00:21:08.772Z,15.49
2019-05-28T00:23:37.948Z,15.95
2019-05-28T00:26:07.165Z,15.93
2019-05-28T00:28:36.349Z,16.10
2019-05-28T00:31:05.549Z,16.34
2019-05-28T00:33:34.775Z,16.41
2019-05-28T00:36:03.987Z,16.17
2019-05-28T00:38:33.220Z,16.30
2019-05-28T00:41:02.490Z,16.44
2019-05-28T00:43:31.725Z,16.56
2019-05-28T00:46:00.908Z,16.52
2019-05-28T00:48:30.133Z,16.37
2019-05-28T00:50:59.295Z,16.42
2019-05-28T00:53:28.554Z,16.43
2019-05-28T00:55:58.782Z,16.48
2019-05-28T00:58:28.611Z,16.45
2019-05-28T01:00:57.963Z,16.56
2019-05-28T01:03:27.202Z,16.59
2019-05-28T01:05:56.413Z,16.50
2019-05-28T01:08:25.593Z,16.43
2019-05-28T01:10:54.812Z,16.58
2019-05-28T01:13:24.049Z,16.56
2019-05-28T01:15:53.244Z,16.61
2019-05-28T01:18:22.493Z,16.38
2019-05-28T01:20:51.758Z,16.20
2019-05-28T01:23:20.954Z,16.15
2019-05-28T01:25:50.164Z,15.76
2019-05-28T01:28:19.380Z,16.21
2019-05-28T01:30:56.244Z,16.45
2019-05-28T01:33:19.584Z,16.49
2019-05-28T01:35:48.996Z,16.46
2019-05-28T01:38:18.172Z,16.28
2019-05-28T01:40:47.459Z,15.09
2019-05-28T01:43:16.669Z,14.53
2019-05-28T01:45:45.919Z,15.09
2019-05-28T01:48:15.091Z,15.86
2019-05-28T01:50:44.286Z,15.68
2019-05-28T01:53:13.514Z,14.98
2019-05-28T01:55:42.802Z,15.56
2019-05-28T01:58:11.995Z,16.01
2019-05-28T02:00:41.275Z,16.23
2019-05-28T02:03:10.493Z,16.11
2019-05-28T02:05:39.647Z,15.86
2019-05-28T02:08:08.951Z,15.84
2019-05-28T02:10:38.139Z,16.15
2019-05-28T02:13:07.316Z,16.27
2019-05-28T02:15:36.597Z,16.30
2019-05-28T02:18:05.842Z,16.27
2019-05-28T02:20:34.996Z,16.13
2019-05-28T02:23:05.596Z,15.88
2019-05-28T02:25:34.754Z,15.95
2019-05-28T02:28:03.945Z,15.91
2019-05-28T02:30:33.096Z,15.97
2019-05-28T02:33:02.362Z,15.65
2019-05-28T02:35:31.535Z,15.73
2019-05-28T02:38:00.820Z,15.72
2019-05-28T02:40:29.932Z,15.63
2019-05-28T02:42:59.350Z,15.45
2019-05-28T02:45:28.634Z,15.62
2019-05-28T02:47:57.892Z,15.69
2019-05-28T02:50:47.370Z,15.79
2019-05-28T02:53:16.647Z,15.47
2019-05-28T02:55:47.717Z,15.42
2019-05-28T02:58:19.753Z,15.47
2019-05-28T03:00:50.399Z,14.82
2019-05-28T03:03:22.955Z,14.83
2019-05-28T03:05:54.733Z,14.82
2019-05-28T03:08:26.247Z,14.79
2019-05-28T03:11:03.121Z,14.96
2019-05-28T03:13:27.031Z,14.78
2019-05-28T03:15:59.475Z,14.94
2019-05-28T03:18:30.272Z,14.88
2019-05-28T03:21:02.456Z,14.93
2019-05-28T03:23:33.692Z,14.74
2019-05-28T03:26:02.947Z,14.70
2019-05-28T03:28:32.630Z,14.46
2019-05-28T03:31:01.914Z,14.48
2019-05-28T03:33:31.271Z,14.56
2019-05-28T03:36:01.894Z,14.73
2019-05-28T03:38:32.674Z,14.77
2019-05-28T03:41:01.918Z,14.63
2019-05-28T03:43:31.102Z,14.59
2019-05-28T03:46:00.442Z,14.82
2019-05-28T03:48:29.742Z,15.03
2019-05-28T03:50:58.969Z,14.92
2019-05-28T03:53:28.171Z,15.01
2019-05-28T03:55:57.442Z,14.88
2019-05-28T03:58:26.610Z,15.07
2019-05-28T04:00:55.829Z,14.85
2019-05-28T04:03:25.012Z,14.92
2019-05-28T04:05:54.237Z,14.84
2019-05-28T04:08:23.459Z,14.59
2019-05-28T04:10:52.672Z,14.78
2019-05-28T04:13:21.855Z,14.34
2019-05-28T04:15:51.058Z,14.34
2019-05-28T04:18:20.246Z,14.47
2019-05-28T04:20:49.521Z,14.58
2019-05-28T04:23:18.930Z,14.27
2019-05-28T04:25:48.184Z,14.21
2019-05-28T04:28:17.426Z,14.32
2019-05-28T04:30:46.645Z,14.60
2019-05-28T04:33:15.820Z,14.91
2019-05-28T04:35:45.085Z,14.73
2019-05-28T04:38:14.302Z,14.12
2019-05-28T04:40:43.545Z,14.25
2019-05-28T04:43:12.792Z,14.21
2019-05-28T04:45:42.062Z,14.16
2019-05-28T04:48:11.309Z,14.33
2019-05-28T04:50:40.550Z,14.23
2019-05-28T04:53:09.827Z,14.08
2019-05-28T04:55:39.197Z,14.27
2019-05-28T04:58:08.503Z,13.82
2019-05-28T05:00:37.856Z,13.93
2019-05-28T05:03:07.088Z,13.85
2019-05-28T05:05:36.353Z,14.17
2019-05-28T05:08:05.577Z,14.18
2019-05-28T05:10:34.826Z,14.02
2019-05-28T05:13:04.031Z,14.16
2019-05-28T05:15:33.440Z,13.64
2019-05-28T05:18:02.817Z,14.16
2019-05-28T05:20:31.996Z,14.12
2019-05-28T05:23:01.212Z,14.27
2019-05-28T05:25:30.436Z,13.83
2019-05-28T05:27:59.629Z,14.20
2019-05-28T05:30:28.835Z,14.20
2019-05-28T05:33:18.277Z,14.07
2019-05-28T05:35:29.058Z,14.21
2019-05-28T05:37:58.331Z,14.27
2019-05-28T05:40:27.771Z,14.29
2019-05-28T05:42:56.991Z,14.57
2019-05-28T05:45:26.184Z,14.65
2019-05-28T05:47:55.412Z,14.43
2019-05-28T05:50:24.587Z,14.51
2019-05-28T05:52:53.786Z,14.75
2019-05-28T05:55:22.960Z,15.03
2019-05-28T05:57:52.180Z,14.41
2019-05-28T06:00:22.196Z,14.59
2019-05-28T06:02:51.425Z,14.54
2019-05-28T06:05:20.685Z,14.90
2019-05-28T06:07:49.952Z,14.83
2019-05-28T06:10:19.233Z,14.54
2019-05-28T06:12:48.457Z,14.87
2019-05-28T06:15:17.653Z,15.02
2019-05-28T06:17:46.829Z,14.96
2019-05-28T06:20:16.381Z,14.99
2019-05-28T06:22:45.592Z,14.89
2019-05-28T06:25:14.928Z,14.99
2019-05-28T06:27:44.133Z,14.71
2019-05-28T06:30:13.943Z,14.85
2019-05-28T06:32:43.129Z,15.34
2019-05-28T06:35:12.562Z,15.33
2019-05-28T06:37:41.760Z,15.14
2019-05-28T06:40:11.190Z,14.89
2019-05-28T06:42:40.677Z,14.75
2019-05-28T06:45:10.047Z,14.74
2019-05-28T06:47:43.888Z,15.07
2019-05-28T06:50:12.237Z,14.70
2019-05-28T06:52:41.901Z,15.23
2019-05-28T06:55:11.316Z,15.53
2019-05-28T06:57:40.524Z,15.70
2019-05-28T07:00:10.362Z,15.97
2019-05-28T07:02:39.601Z,16.18
2019-05-28T07:05:09.170Z,15.88
2019-05-28T07:07:38.416Z,15.31
2019-05-28T07:10:08.205Z,15.41
2019-05-28T07:12:37.452Z,15.59
2019-05-28T07:15:07.602Z,16.23
2019-05-28T07:17:36.800Z,16.52
2019-05-28T07:20:06.785Z,16.48
2019-05-28T07:22:36.120Z,16.60
2019-05-28T07:25:05.614Z,16.80
2019-05-28T07:27:34.846Z,16.37
2019-05-28T07:30:04.318Z,16.83
2019-05-28T07:32:33.551Z,15.91
2019-05-28T07:35:03.107Z,15.14
2019-05-28T07:37:32.457Z,15.37
2019-05-28T07:40:01.688Z,15.43
2019-05-28T07:42:33.063Z,15.94
2019-05-28T07:45:02.210Z,15.69
2019-05-28T07:47:31.545Z,14.81
2019-05-28T07:50:00.721Z,14.49
2019-05-28T07:52:29.972Z,14.90
2019-05-28T07:54:59.213Z,15.12
2019-05-28T07:57:28.457Z,15.06
2019-05-28T07:59:57.699Z,14.27
2019-05-28T08:02:26.950Z,13.78
2019-05-28T08:04:56.150Z,13.43
2019-05-28T08:07:25.450Z,13.78
2019-05-28T08:09:54.622Z,14.50
2019-05-28T08:12:23.826Z,14.13
2019-05-28T08:14:53.032Z,14.88
2019-05-28T08:17:22.240Z,15.65
2019-05-28T08:19:51.442Z,16.03
2019-05-28T08:22:20.655Z,15.89
2019-05-28T08:24:49.882Z,16.17
2019-05-28T08:27:19.176Z,16.59
2019-05-28T08:29:48.355Z,16.61
2019-05-28T08:32:17.622Z,16.54
2019-05-28T08:35:02.139Z,16.43
2019-05-28T08:37:17.862Z,16.70
2019-05-28T08:39:47.052Z,16.45
2019-05-28T08:42:16.261Z,16.44
2019-05-28T08:44:45.515Z,16.80
2019-05-28T08:47:14.780Z,17.27
2019-05-28T08:49:44.013Z,16.71
2019-05-28T08:52:13.204Z,16.04
2019-05-28T08:54:42.421Z,16.31
2019-05-28T08:57:11.598Z,16.32
2019-05-28T08:59:40.796Z,16.05
2019-05-28T09:02:26.315Z,16.16
2019-05-28T09:04:41.174Z,16.13
2019-05-28T09:07:10.355Z,16.12
2019-05-28T09:09:39.575Z,16.38
2019-05-28T09:12:09.719Z,16.45
2019-05-28T09:14:54.984Z,16.32
2019-05-28T09:17:10.107Z,16.42
2019-05-28T09:19:39.381Z,16.72
2019-05-28T09:22:24.419Z,16.51
2019-05-28T09:24:39.717Z,16.75
2019-05-28T09:27:09.002Z,16.63
2019-05-28T09:29:38.244Z,16.61
2019-05-28T09:32:07.578Z,16.52
2019-05-28T09:34:36.776Z,16.87
2019-05-28T09:37:05.952Z,16.50
2019-05-28T09:39:35.257Z,16.59
2019-05-28T09:42:04.597Z,16.42
2019-05-28T09:44:33.806Z,16.51
2019-05-28T09:47:03.041Z,16.52
2019-05-28T09:49:32.243Z,16.70
2019-05-28T09:52:01.447Z,16.59
2019-05-28T09:54:30.709Z,16.37
2019-05-28T09:56:59.897Z,16.65
2019-05-28T09:59:41.040Z,16.77
2019-05-28T10:02:00.133Z,16.75
2019-05-28T10:04:45.678Z,16.82
2019-05-28T10:07:00.402Z,17.12
2019-05-28T10:09:29.574Z,17.47
2019-05-28T10:11:58.890Z,17.31
2019-05-28T10:14:28.125Z,17.17
2019-05-28T10:16:57.390Z,17.34
2019-05-28T10:19:26.629Z,17.09
2019-05-28T10:21:55.978Z,17.64
2019-05-28T10:24:25.195Z,17.50
2019-05-28T10:26:54.453Z,17.31
2019-05-28T10:29:23.681Z,17.44
2019-05-28T10:31:52.866Z,17.62
2019-05-28T10:34:22.067Z,17.35
2019-05-28T10:36:51.322Z,17.54
2019-05-28T10:39:20.509Z,17.53
2019-05-28T10:41:49.708Z,17.21
2019-05-28T10:44:18.913Z,17.57
2019-05-28T10:46:48.150Z,17.45
2019-05-28T10:49:17.404Z,17.67
2019-05-28T10:51:46.623Z,17.62
2019-05-28T10:54:15.802Z,17.36
2019-05-28T10:56:45.073Z,17.34
2019-05-28T10:59:14.272Z,17.90
2019-05-28T11:01:43.506Z,17.49
2019-05-28T11:04:12.716Z,18.06
2019-05-28T11:06:51.547Z,18.26
2019-05-28T11:09:12.995Z,17.62
2019-05-28T11:11:42.267Z,18.26
2019-05-28T11:14:11.571Z,18.13
2019-05-28T11:16:40.885Z,17.73
2019-05-28T11:19:10.085Z,17.85
2019-05-28T11:21:39.298Z,18.60
2019-05-28T11:24:08.469Z,18.24
2019-05-28T11:26:37.660Z,18.35
2019-05-28T11:29:06.884Z,18.33
2019-05-28T11:31:36.090Z,18.14
2019-05-28T11:34:05.650Z,18.87
2019-05-28T11:36:34.846Z,19.21
2019-05-28T11:39:06.383Z,19.09
2019-05-28T11:41:42.052Z,18.69
2019-05-28T11:44:06.902Z,18.26
2019-05-28T11:46:36.217Z,18.59
2019-05-28T11:49:05.591Z,18.58
2019-05-28T11:51:34.777Z,18.92
2019-05-28T11:54:04.103Z,18.88
2019-05-28T11:56:33.245Z,18.97
2019-05-28T11:59:02.477Z,19.10
2019-05-28T12:01:35.130Z,19.29
2019-05-28T12:04:02.624Z,19.10
2019-05-28T12:06:37.941Z,19.62
2019-05-28T12:09:02.921Z,19.78
2019-05-28T12:11:32.264Z,19.78
2019-05-28T12:14:01.581Z,20.14
2019-05-28T12:16:30.769Z,20.54
2019-05-28T12:19:00.033Z,20.18
2019-05-28T12:21:29.208Z,20.14
2019-05-28T12:23:58.472Z,20.88
2019-05-28T12:26:27.690Z,20.07
2019-05-28T12:28:56.962Z,20.10
2019-05-28T12:31:26.394Z,20.59
2019-05-28T12:33:55.634Z,20.95
2019-05-28T12:36:24.799Z,20.35
2019-05-28T12:38:54.859Z,20.71
2019-05-28T12:41:24.078Z,20.37
2019-05-28T12:43:53.278Z,20.61
2019-05-28T12:46:22.728Z,20.78
2019-05-28T12:48:51.987Z,21.03
2019-05-28T12:51:21.177Z,20.30
2019-05-28T12:53:51.509Z,20.13
2019-05-28T12:56:21.082Z,20.43
2019-05-28T12:58:50.405Z,20.57
2019-05-28T13:01:19.673Z,21.14
2019-05-28T13:03:51.875Z,21.41
2019-05-28T13:06:20.136Z,20.51
2019-05-28T13:08:49.324Z,21.21
2019-05-28T13:11:18.597Z,22.35
2019-05-28T13:13:47.799Z,20.96
2019-05-28T13:16:17.077Z,21.25
2019-05-28T13:18:46.292Z,21.84
2019-05-28T13:21:15.535Z,21.42
2019-05-28T13:23:44.771Z,19.97
2019-05-28T13:26:14.835Z,20.64
2019-05-28T13:28:44.131Z,21.39
2019-05-28T13:31:13.412Z,20.87
2019-05-28T13:33:42.654Z,21.61
2019-05-28T13:36:11.912Z,20.56
2019-05-28T13:38:42.826Z,20.64
2019-05-28T13:41:12.245Z,20.49
2019-05-28T13:43:41.474Z,20.73
2019-05-28T13:46:10.731Z,20.54
2019-05-28T13:48:40.037Z,19.97
2019-05-28T13:51:09.265Z,19.11
2019-05-28T13:53:38.454Z,20.35
2019-05-28T13:56:07.718Z,19.53
2019-05-28T13:58:36.993Z,19.65
2019-05-28T14:01:06.261Z,20.44
2019-05-28T14:03:35.465Z,19.68
2019-05-28T14:06:04.771Z,19.62
2019-05-28T14:08:45.470Z,20.13
2019-05-28T14:11:04.954Z,20.38
2019-05-28T14:13:34.333Z,20.59
2019-05-28T14:16:04.210Z,20.61
2019-05-28T14:18:33.460Z,20.94
2019-05-28T14:21:02.689Z,20.98
2019-05-28T14:23:31.921Z,20.66
2019-05-28T14:26:01.173Z,20.89
2019-05-28T14:28:30.547Z,20.66
2019-05-28T14:31:00.700Z,21.06
2019-05-28T14:33:29.972Z,20.84
2019-05-28T14:35:59.242Z,21.43
2019-05-28T14:38:28.465Z,21.52
2019-05-28T14:40:57.762Z,21.20
2019-05-28T14:43:27.017Z,20.81
2019-05-28T14:45:56.246Z,20.48
2019-05-28T14:48:25.466Z,20.23
2019-05-28T14:50:54.965Z,19.74
2019-05-28T14:53:24.203Z,20.93
2019-05-28T14:55:53.626Z,20.28
2019-05-28T14:58:22.973Z,19.90
2019-05-28T15:00:52.250Z,19.91
2019-05-28T15:03:21.425Z,20.32
2019-05-28T15:05:50.664Z,20.68
2019-05-28T15:08:19.966Z,20.85
2019-05-28T15:10:49.175Z,20.34
2019-05-28T15:13:18.405Z,20.45
2019-05-28T15:15:47.688Z,20.41
2019-05-28T15:18:16.889Z,20.61
2019-05-28T15:20:46.101Z,20.64
2019-05-28T15:23:15.311Z,20.14
2019-05-28T15:25:44.482Z,20.10
2019-05-28T15:28:13.722Z,20.33
2019-05-28T15:30:42.954Z,20.15
2019-05-28T15:33:12.216Z,20.62
2019-05-28T15:35:41.448Z,20.71
2019-05-28T15:38:10.603Z,20.85
2019-05-28T15:40:39.802Z,18.87
2019-05-28T15:43:09.022Z,20.02
2019-05-28T15:45:38.250Z,20.57
2019-05-28T15:48:07.507Z,19.91
2019-05-28T15:50:36.758Z,19.53
2019-05-28T15:53:05.968Z,19.33
2019-05-28T15:55:35.184Z,19.06
2019-05-28T15:58:04.389Z,18.76
2019-05-28T16:00:33.671Z,18.48
2019-05-28T16:03:02.886Z,18.29
2019-05-28T16:05:32.128Z,18.89
2019-05-28T16:08:01.293Z,18.77
2019-05-28T16:10:30.506Z,18.70
2019-05-28T16:12:59.782Z,18.67
2019-05-28T16:15:29.030Z,19.09
2019-05-28T16:17:58.325Z,19.05
2019-05-28T16:20:27.671Z,19.05
2019-05-28T16:22:56.928Z,19.14
2019-05-28T16:25:26.173Z,18.79
2019-05-28T16:27:55.575Z,18.79
2019-05-28T16:30:25.149Z,18.12
2019-05-28T16:32:54.384Z,18.19
2019-05-28T16:35:23.702Z,18.43
2019-05-28T16:37:52.959Z,18.59
2019-05-28T16:40:22.294Z,18.49
2019-05-28T16:42:51.558Z,18.90
2019-05-28T16:45:21.178Z,18.53
2019-05-28T16:47:50.528Z,18.80
2019-05-28T16:50:19.970Z,18.68
2019-05-28T16:52:49.162Z,18.86
2019-05-28T16:55:18.539Z,18.40
2019-05-28T16:57:47.784Z,18.47
2019-05-28T17:00:18.529Z,18.30
2019-05-28T17:02:47.817Z,18.20
2019-05-28T17:05:17.708Z,18.30
2019-05-28T17:07:46.964Z,17.83
2019-05-28T17:10:31.552Z,18.17
2019-05-28T17:12:47.412Z,17.86
2019-05-28T17:15:17.227Z,18.17
2019-05-28T17:17:46.830Z,17.43
2019-05-28T17:20:17.116Z,18.00
2019-05-28T17:22:46.445Z,17.94
2019-05-28T17:25:15.992Z,18.23
2019-05-28T17:27:45.242Z,17.89
2019-05-28T17:30:19.161Z,18.19
2019-05-28T17:32:46.409Z,18.14
2019-05-28T17:35:15.945Z,18.27
2019-05-28T17:37:45.172Z,18.18
2019-05-28T17:40:14.480Z,17.92
2019-05-28T17:42:43.752Z,18.08
2019-05-28T17:45:13.412Z,18.54
2019-05-28T17:47:44.369Z,18.54
2019-05-28T17:50:13.950Z,18.40
2019-05-28T17:52:43.318Z,18.40
2019-05-28T17:55:12.778Z,17.48
2019-05-28T17:57:41.991Z,17.58
2019-05-28T18:00:11.481Z,17.74
2019-05-28T18:02:41.153Z,17.76
2019-05-28T18:05:10.709Z,17.67
2019-05-28T18:07:39.924Z,17.43
2019-05-28T18:10:10.428Z,17.83
2019-05-28T18:12:39.729Z,18.20
2019-05-28T18:15:09.419Z,18.26
2019-05-28T18:17:38.922Z,18.24
2019-05-28T18:20:09.229Z,18.28
2019-05-28T18:22:38.482Z,17.83
2019-05-28T18:25:07.961Z,17.42
2019-05-28T18:27:37.347Z,17.53
2019-05-28T18:30:06.974Z,17.57
2019-05-28T18:32:36.399Z,17.15
2019-05-28T18:35:06.444Z,16.93
2019-05-28T18:37:35.792Z,16.90
2019-05-28T18:40:06.227Z,16.97
2019-05-28T18:42:35.489Z,17.24
2019-05-28T18:45:05.208Z,17.53
2019-05-28T18:47:34.587Z,17.46
2019-05-28T18:50:04.303Z,17.02
2019-05-28T18:52:33.510Z,17.03
2019-05-28T18:55:03.995Z,17.13
2019-05-28T18:57:33.656Z,16.96
2019-05-28T19:00:02.936Z,16.67
2019-05-28T19:02:32.295Z,16.32
2019-05-28T19:05:01.539Z,16.38
2019-05-28T19:07:30.759Z,16.26
2019-05-28T19:10:00.068Z,16.79
2019-05-28T19:12:29.286Z,16.90
2019-05-28T19:14:58.553Z,16.68
2019-05-28T19:17:27.808Z,16.18
2019-05-28T19:19:57.069Z,16.68
2019-05-28T19:22:26.290Z,16.87
2019-05-28T19:24:57.383Z,17.01
2019-05-28T19:27:26.858Z,17.06
2019-05-28T19:29:56.331Z,17.05
2019-05-28T19:32:25.562Z,16.86
2019-05-28T19:34:55.044Z,16.63
2019-05-28T19:37:24.463Z,16.50
2019-05-28T19:39:53.932Z,16.63
2019-05-28T19:42:23.229Z,16.51
2019-05-28T19:44:52.565Z,16.66
2019-05-28T19:47:21.866Z,16.32
2019-05-28T19:49:51.162Z,16.38
2019-05-28T19:52:20.414Z,15.98
2019-05-28T19:54:49.626Z,15.98
2019-05-28T19:57:18.874Z,16.28
2019-05-28T19:59:48.176Z,16.37
2019-05-28T20:02:17.461Z,16.21
2019-05-28T20:04:46.684Z,16.00
2019-05-28T20:07:15.883Z,15.58
2019-05-28T20:09:45.224Z,15.98
2019-05-28T20:12:14.525Z,15.42
2019-05-28T20:14:43.873Z,15.39
2019-05-28T20:17:13.402Z,15.88
2019-05-28T20:19:42.695Z,15.81
2019-05-28T20:22:12.252Z,15.80
2019-05-28T20:24:41.562Z,15.83
2019-05-28T20:27:10.793Z,15.78
2019-05-28T20:29:40.065Z,15.72
2019-05-28T20:32:09.507Z,15.50
2019-05-28T20:34:38.928Z,15.73
2019-05-28T20:37:08.229Z,15.79
2019-05-28T20:39:37.489Z,15.68
2019-05-28T20:42:06.784Z,15.13
2019-05-28T20:44:36.025Z,15.56
2019-05-28T20:47:06.839Z,15.55
2019-05-28T20:49:36.333Z,15.54
2019-05-28T20:52:05.638Z,15.48
2019-05-28T20:54:34.816Z,15.60
2019-05-28T20:57:04.031Z,15.16
2019-05-28T20:59:33.361Z,15.45
2019-05-28T21:02:02.635Z,15.42
2019-05-28T21:04:31.888Z,15.49
2019-05-28T21:07:01.159Z,15.43
2019-05-28T21:09:30.380Z,15.33
2019-05-28T21:11:59.611Z,15.39
2019-05-28T21:14:28.878Z,15.20
2019-05-28T21:16:59.191Z,15.17
2019-05-28T21:19:28.480Z,15.41
2019-05-28T21:21:57.894Z,15.34
2019-05-28T21:24:27.173Z,15.14
2019-05-28T21:26:56.525Z,15.24
2019-05-28T21:29:25.798Z,15.15
2019-05-28T21:31:55.039Z,14.62
2019-05-28T21:34:24.245Z,13.80
2019-05-28T21:36:53.440Z,13.27
2019-05-28T21:39:22.711Z,12.85
2019-05-28T21:41:51.950Z,12.88
2019-05-28T21:44:21.137Z,12.53
2019-05-28T21:46:50.415Z,12.87
2019-05-28T21:49:19.698Z,13.21
2019-05-28T21:51:48.927Z,13.39
2019-05-28T21:54:18.138Z,13.12
2019-05-28T21:56:47.361Z,13.24
2019-05-28T21:59:16.615Z,13.41
2019-05-28T22:01:45.956Z,12.76
2019-05-28T22:04:15.175Z,12.91
2019-05-28T22:06:44.689Z,13.11
2019-05-28T22:09:13.895Z,13.51
2019-05-28T22:11:43.308Z,13.36
2019-05-28T22:14:12.890Z,13.50
2019-05-28T22:16:42.041Z,12.93
2019-05-28T22:19:11.320Z,12.57
2019-05-28T22:21:40.518Z,12.08
2019-05-28T22:24:09.705Z,11.63
2019-05-28T22:26:38.970Z,12.29
2019-05-28T22:29:08.148Z,12.42
2019-05-28T22:31:37.386Z,12.12
2019-05-28T22:34:07.304Z,12.64
2019-05-28T22:36:36.680Z,12.48
2019-05-28T22:39:08.695Z,12.92
2019-05-28T22:41:39.495Z,13.29
2019-05-28T22:44:08.902Z,13.20
2019-05-28T22:46:38.356Z,13.22
2019-05-28T22:49:07.650Z,13.33
2019-05-28T22:51:36.899Z,13.14
2019-05-28T22:54:06.355Z,13.13
2019-05-28T22:56:35.600Z,12.93
2019-05-28T22:59:04.766Z,12.67
2019-05-28T23:01:33.984Z,11.70
2019-05-28T23:04:03.191Z,11.19
2019-05-28T23:06:32.360Z,11.55
2019-05-28T23:09:01.526Z,11.21
2019-05-28T23:11:30.728Z,11.31
2019-05-28T23:13:59.939Z,11.40
2019-05-28T23:16:29.150Z,11.90
2019-05-28T23:18:58.294Z,11.91
2019-05-28T23:21:27.564Z,12.07
2019-05-28T23:23:56.827Z,11.35
2019-05-28T23:26:26.300Z,11.47
2019-05-28T23:28:55.496Z,11.87
2019-05-28T23:31:24.712Z,11.69
2019-05-28T23:33:53.891Z,11.85
2019-05-28T23:36:23.118Z,11.70
2019-05-28T23:38:52.398Z,11.62
2019-05-28T23:41:21.569Z,11.23
2019-05-28T23:44:01.409Z,11.43
2019-05-28T23:46:21.687Z,11.32
2019-05-28T23:48:50.964Z,11.82
2019-05-28T23:51:20.152Z,12.37
2019-05-28T23:53:49.351Z,12.53
2019-05-28T23:56:18.581Z,12.64
2019-05-28T23:58:47.800Z,12.70
